Time;durP1;ratioP1;P1;durP2;ratioP2;P2;SDS_P1;SDS_P2;PMS_P1;PMS_P2;Temp;Humidity;BMP_temperature;BMP_pressure;BME280_temperature;BME280_humidity;BME280_pressure;Samples;Min_cycle;Max_cycle;Signal;HPM_P1;HPM_P2
2023/04/22 00:02:13;;;;;;;13.07;9.70;;;9.40;99.90;;;;;;5075299;28;20561;-73
2023/04/22 00:04:40;;;;;;;11.70;9.63;;;9.40;99.90;;;;;;5075241;28;20247;-73
2023/04/22 00:07:08;;;;;;;10.23;9.10;;;9.30;99.90;;;;;;5075123;28;20197;-73
2023/04/22 00:09:35;;;;;;;14.47;9.57;;;9.20;99.90;;;;;;5075026;28;20233;-73
2023/04/22 00:12:02;;;;;;;13.13;9.47;;;9.20;99.90;;;;;;5075236;28;20196;-73
2023/04/22 00:14:28;;;;;;;10.53;9.10;;;9.20;99.90;;;;;;5074978;28;20228;-73
2023/04/22 00:16:56;;;;;;;12.50;9.87;;;9.20;99.90;;;;;;5074889;28;20263;-73
2023/04/22 00:19:23;;;;;;;10.40;9.30;;;9.20;99.90;;;;;;5074839;28;20235;-74
2023/04/22 00:21:49;;;;;;;10.90;9.80;;;9.10;99.90;;;;;;5074831;28;20229;-73
2023/04/22 00:24:17;;;;;;;11.73;9.83;;;9.10;99.90;;;;;;5074759;28;20201;-73
2023/04/22 00:26:44;;;;;;;11.33;9.77;;;9.10;99.90;;;;;;5074904;28;20254;-73
2023/04/22 00:29:11;;;;;;;16.70;10.07;;;9.20;99.90;;;;;;5074841;28;20237;-73
2023/04/22 00:31:37;;;;;;;13.63;10.03;;;9.10;99.90;;;;;;5074680;28;20270;-73
2023/04/22 00:34:04;;;;;;;11.50;9.57;;;9.10;99.90;;;;;;5074343;28;20241;-75
2023/04/22 00:36:31;;;;;;;13.53;9.90;;;9.20;99.90;;;;;;5074571;28;20197;-73
2023/04/22 00:38:57;;;;;;;13.50;9.93;;;9.20;99.90;;;;;;5074355;28;20197;-73
2023/04/22 00:41:27;;;;;;;10.77;9.23;;;9.20;99.90;;;;;;5074246;28;20602;-73
2023/04/22 00:43:53;;;;;;;12.10;10.13;;;9.10;99.90;;;;;;5074431;28;20228;-73
2023/04/22 00:46:21;;;;;;;14.20;10.10;;;9.10;99.90;;;;;;5074441;28;20205;-74
2023/04/22 00:48:49;;;;;;;12.20;9.57;;;9.10;99.90;;;;;;5074345;28;20228;-73
2023/04/22 00:51:15;;;;;;;12.53;9.50;;;9.00;99.90;;;;;;5074161;28;20232;-73
2023/04/22 00:53:42;;;;;;;10.87;9.77;;;9.10;99.90;;;;;;5074394;28;20222;-73
2023/04/22 00:56:08;;;;;;;12.60;9.23;;;9.00;99.90;;;;;;5074177;28;20253;-73
2023/04/22 00:58:36;;;;;;;10.20;8.70;;;9.00;99.90;;;;;;5074130;28;20235;-73
2023/04/22 01:01:03;;;;;;;11.83;9.90;;;9.00;99.90;;;;;;5074001;28;20197;-74
2023/04/22 01:03:32;;;;;;;10.97;9.40;;;9.00;99.90;;;;;;5073814;28;20553;-73
2023/04/22 01:05:59;;;;;;;11.77;9.03;;;9.00;99.90;;;;;;5073921;28;20648;-72
2023/04/22 01:08:29;;;;;;;12.43;8.37;;;9.00;99.90;;;;;;5073787;28;20193;-73
2023/04/22 01:10:56;;;;;;;13.17;9.53;;;8.80;99.90;;;;;;5073852;28;20713;-73
2023/04/22 01:13:23;;;;;;;18.83;9.67;;;8.90;99.90;;;;;;5073841;28;20197;-73
2023/04/22 01:15:52;;;;;;;10.67;8.83;;;8.90;99.90;;;;;;5073660;28;20234;-73
2023/04/22 01:18:19;;;;;;;10.10;9.00;;;9.00;99.90;;;;;;5073639;28;20266;-73
2023/04/22 01:20:46;;;;;;;10.07;9.07;;;8.90;99.90;;;;;;5073610;28;20228;-73
2023/04/22 01:23:18;;;;;;;12.93;9.83;;;9.00;99.90;;;;;;5073631;28;20201;-73
2023/04/22 01:25:46;;;;;;;12.63;9.57;;;8.90;99.90;;;;;;5073650;28;20307;-73
2023/04/22 01:28:13;;;;;;;12.70;10.10;;;8.90;99.90;;;;;;5073485;28;20568;-73
2023/04/22 01:30:40;;;;;;;12.17;9.03;;;9.00;99.90;;;;;;5072991;28;20203;-73
2023/04/22 01:33:07;;;;;;;12.17;10.20;;;9.00;99.90;;;;;;5073306;28;20193;-73
2023/04/22 01:35:35;;;;;;;11.70;9.83;;;9.00;99.90;;;;;;5073179;28;20262;-73
2023/04/22 01:38:02;;;;;;;12.30;9.70;;;9.00;99.90;;;;;;5073488;28;20200;-73
2023/04/22 01:40:31;;;;;;;10.50;9.40;;;9.00;99.90;;;;;;5073363;28;20231;-73
2023/04/22 01:42:58;;;;;;;11.80;9.63;;;9.00;99.90;;;;;;5073122;28;20635;-74
2023/04/22 01:45:25;;;;;;;10.13;8.57;;;8.90;99.90;;;;;;5073229;28;20357;-74
2023/04/22 01:47:52;;;;;;;10.80;9.37;;;9.00;99.90;;;;;;5073420;28;20201;-74
2023/04/22 01:50:19;;;;;;;10.63;8.60;;;9.00;99.90;;;;;;5073374;28;20204;-74
2023/04/22 01:52:46;;;;;;;10.27;8.77;;;9.00;99.90;;;;;;5073244;28;20240;-74
2023/04/22 01:55:13;;;;;;;11.00;9.13;;;9.00;99.90;;;;;;5073049;28;20220;-73
2023/04/22 01:57:41;;;;;;;10.87;8.90;;;9.00;99.90;;;;;;5073145;28;20228;-71
2023/04/22 02:00:09;;;;;;;10.93;8.97;;;9.00;99.90;;;;;;5072911;28;20220;-73
2023/04/22 02:02:35;;;;;;;10.53;9.27;;;9.00;99.90;;;;;;5073151;28;20224;-73
2023/04/22 02:05:02;;;;;;;10.37;9.10;;;9.00;99.90;;;;;;5073173;28;20200;-73
2023/04/22 02:07:29;;;;;;;10.37;9.27;;;9.00;99.90;;;;;;5073028;28;20201;-72
2023/04/22 02:09:55;;;;;;;10.20;9.13;;;8.90;99.90;;;;;;5072994;28;20610;-73
2023/04/22 02:12:22;;;;;;;10.70;9.50;;;8.90;99.90;;;;;;5072861;28;20234;-73
2023/04/22 02:14:50;;;;;;;10.53;9.43;;;8.90;99.90;;;;;;5072682;28;20239;-72
2023/04/22 02:17:17;;;;;;;10.00;8.97;;;8.90;99.90;;;;;;5073018;28;20232;-73
2023/04/22 02:19:44;;;;;;;10.27;8.47;;;8.90;99.90;;;;;;5072967;28;20553;-72
2023/04/22 02:22:10;;;;;;;10.50;8.97;;;8.90;99.90;;;;;;5072993;28;20193;-73
2023/04/22 02:24:37;;;;;;;11.07;9.60;;;8.90;99.90;;;;;;5072831;28;20658;-73
2023/04/22 02:27:04;;;;;;;11.10;9.37;;;8.90;99.90;;;;;;5072650;28;20200;-73
2023/04/22 02:29:31;;;;;;;11.23;9.20;;;8.90;99.90;;;;;;5072951;28;20226;-73
2023/04/22 02:31:59;;;;;;;9.77;8.67;;;8.80;99.90;;;;;;5072762;28;20205;-73
2023/04/22 02:34:25;;;;;;;12.57;9.30;;;8.80;99.90;;;;;;5072378;28;20704;-73
2023/04/22 02:36:52;;;;;;;9.60;8.60;;;8.80;99.90;;;;;;5072566;28;20232;-73
2023/04/22 02:39:19;;;;;;;12.30;8.97;;;8.70;99.90;;;;;;5072546;28;20652;-73
2023/04/22 02:41:45;;;;;;;13.20;9.23;;;8.70;99.90;;;;;;5073432;28;20545;-72
2023/04/22 02:44:12;;;;;;;10.57;9.10;;;8.80;99.90;;;;;;5076820;28;20193;-72
2023/04/22 02:46:39;;;;;;;10.27;9.13;;;8.80;99.90;;;;;;5076745;28;20239;-73
2023/04/22 02:49:06;;;;;;;13.47;9.80;;;8.90;99.90;;;;;;5076771;28;20193;-73
2023/04/22 02:51:33;;;;;;;11.70;9.60;;;8.80;99.90;;;;;;5076489;28;20201;-73
2023/04/22 02:54:00;;;;;;;12.63;10.50;;;8.70;99.90;;;;;;5076437;28;20624;-73
2023/04/22 02:56:27;;;;;;;11.90;9.43;;;8.70;99.90;;;;;;5076127;28;20268;-73
2023/04/22 02:58:53;;;;;;;12.83;10.90;;;8.70;99.90;;;;;;5076621;28;20193;-72
2023/04/22 03:01:20;;;;;;;13.17;10.40;;;8.70;99.90;;;;;;5076282;28;20648;-73
2023/04/22 03:03:46;;;;;;;14.43;10.83;;;8.70;99.90;;;;;;5076412;28;20233;-73
2023/04/22 03:06:14;;;;;;;13.87;10.93;;;8.70;99.90;;;;;;5076332;28;20197;-73
2023/04/22 03:08:41;;;;;;;13.00;10.70;;;8.60;99.90;;;;;;5076092;28;20236;-73
2023/04/22 03:11:08;;;;;;;13.20;10.90;;;8.70;99.90;;;;;;5076128;28;20240;-74
2023/04/22 03:13:34;;;;;;;12.37;10.40;;;8.60;99.90;;;;;;5076025;28;20695;-73
2023/04/22 03:16:01;;;;;;;14.27;10.13;;;8.60;99.90;;;;;;5076052;28;20264;-73
2023/04/22 03:18:27;;;;;;;11.20;10.10;;;8.60;99.90;;;;;;5075878;28;20688;-73
2023/04/22 03:20:54;;;;;;;13.97;10.83;;;8.50;99.90;;;;;;5075917;28;20201;-73
2023/04/22 03:23:22;;;;;;;11.57;10.37;;;8.50;99.90;;;;;;5075806;28;20741;-73
2023/04/22 03:25:49;;;;;;;10.23;9.23;;;8.50;99.90;;;;;;5076102;28;20228;-73
2023/04/22 03:28:15;;;;;;;11.47;9.77;;;8.50;99.90;;;;;;5075968;28;20204;-73
2023/04/22 03:30:42;;;;;;;14.10;9.73;;;8.40;99.90;;;;;;5075988;28;20232;-73
2023/04/22 03:33:09;;;;;;;12.60;9.87;;;8.40;99.90;;;;;;5075913;28;20233;-74
2023/04/22 03:35:35;;;;;;;10.33;9.33;;;8.40;99.90;;;;;;5074596;28;20273;-74
2023/04/22 03:38:02;;;;;;;13.00;9.43;;;8.40;99.90;;;;;;5074383;28;20240;-73
2023/04/22 03:40:30;;;;;;;13.67;9.57;;;8.40;99.90;;;;;;5074574;28;20247;-73
2023/04/22 03:42:56;;;;;;;12.03;10.73;;;8.30;99.90;;;;;;5074629;28;20197;-74
2023/04/22 03:45:23;;;;;;;12.63;10.10;;;8.30;99.90;;;;;;5074130;28;20228;-73
2023/04/22 03:47:50;;;;;;;11.70;10.53;;;8.30;99.90;;;;;;5074347;28;20552;-73
2023/04/22 03:50:16;;;;;;;11.13;9.90;;;8.20;99.90;;;;;;5074351;28;20204;-73
2023/04/22 03:52:43;;;;;;;11.63;10.43;;;8.20;99.90;;;;;;5073743;28;20673;-73
2023/04/22 03:55:10;;;;;;;10.97;9.00;;;8.10;99.90;;;;;;5074285;28;20229;-73
2023/04/22 03:57:38;;;;;;;11.50;9.97;;;8.10;99.90;;;;;;5074398;28;20225;-73
2023/04/22 04:00:05;;;;;;;10.03;9.03;;;8.10;99.90;;;;;;5074164;28;20201;-73
2023/04/22 04:02:32;;;;;;;14.17;9.27;;;8.10;99.90;;;;;;5074062;28;20232;-72
2023/04/22 04:04:59;;;;;;;9.37;8.33;;;8.10;99.90;;;;;;5074031;28;20236;-73
2023/04/22 04:07:25;;;;;;;10.70;8.70;;;8.10;99.90;;;;;;5074165;28;20208;-72
2023/04/22 04:09:52;;;;;;;10.73;8.90;;;8.10;99.90;;;;;;5074120;28;20197;-73
2023/04/22 04:12:19;;;;;;;10.13;9.00;;;8.10;99.90;;;;;;5073990;28;20253;-73
2023/04/22 04:14:47;;;;;;;10.57;8.93;;;8.10;99.90;;;;;;5073902;28;20197;-75
2023/04/22 04:17:14;;;;;;;9.27;8.33;;;8.10;99.90;;;;;;5073862;28;20650;-73
2023/04/22 04:19:40;;;;;;;12.03;8.73;;;8.20;99.90;;;;;;5073274;28;20197;-73
2023/04/22 04:22:08;;;;;;;11.90;9.33;;;8.20;99.90;;;;;;5074025;28;20200;-72
2023/04/22 04:24:40;;;;;;;12.50;9.80;;;8.20;99.90;;;;;;5073884;28;20204;-72
2023/04/22 04:27:07;;;;;;;14.47;10.40;;;8.30;99.90;;;;;;5073700;28;20556;-72
2023/04/22 04:29:34;;;;;;;14.27;10.53;;;8.30;99.90;;;;;;5073707;28;20228;-73
2023/04/22 04:32:03;;;;;;;18.23;11.33;;;8.30;99.90;;;;;;5073567;28;20208;-73
2023/04/22 04:34:30;;;;;;;20.07;11.20;;;8.40;99.90;;;;;;5037352;28;1032589;-73
2023/04/22 04:36:57;;;;;;;15.50;10.63;;;8.50;99.90;;;;;;5074604;28;20228;-73
2023/04/22 04:39:25;;;;;;;15.70;11.23;;;8.50;99.90;;;;;;5074557;28;20198;-72
2023/04/22 04:41:54;;;;;;;14.97;11.30;;;8.60;99.90;;;;;;5074529;28;20255;-73
2023/04/22 04:44:20;;;;;;;15.90;9.90;;;8.70;99.90;;;;;;5074425;28;20232;-72
2023/04/22 04:46:47;;;;;;;15.93;10.80;;;8.80;99.90;;;;;;5074158;28;20208;-73
2023/04/22 04:49:15;;;;;;;17.80;9.83;;;8.80;99.90;;;;;;5074299;28;20220;-73
2023/04/22 04:51:42;;;;;;;15.33;9.87;;;8.90;99.90;;;;;;5074363;28;20729;-74
2023/04/22 04:54:09;;;;;;;13.27;9.97;;;9.00;99.90;;;;;;5074210;28;20197;-72
2023/04/22 04:56:35;;;;;;;13.13;9.67;;;9.10;99.90;;;;;;5074069;28;20221;-73
2023/04/22 04:59:02;;;;;;;11.50;9.77;;;9.20;99.90;;;;;;5074082;28;20224;-73
2023/04/22 05:01:28;;;;;;;11.47;9.27;;;9.30;99.90;;;;;;5073960;28;20628;-72
2023/04/22 05:03:55;;;;;;;13.73;8.73;;;9.40;99.90;;;;;;5073684;28;20225;-73
2023/04/22 05:06:23;;;;;;;11.07;9.13;;;9.50;99.90;;;;;;5073668;28;20216;-73
2023/04/22 05:08:50;;;;;;;12.47;9.80;;;9.60;99.90;;;;;;5073764;28;20229;-73
2023/04/22 05:11:16;;;;;;;12.13;9.37;;;9.70;99.90;;;;;;5073863;28;20232;-73
2023/04/22 05:13:44;;;;;;;12.23;9.43;;;9.80;99.90;;;;;;5073790;28;20233;-72
2023/04/22 05:16:11;;;;;;;12.60;9.00;;;10.00;99.90;;;;;;5073579;28;20225;-72
2023/04/22 05:18:39;;;;;;;12.87;9.60;;;10.20;99.90;;;;;;5073785;28;20229;-72
2023/04/22 05:21:06;;;;;;;10.40;8.73;;;10.30;99.90;;;;;;5073928;28;20197;-73
2023/04/22 05:23:34;;;;;;;8.53;7.63;;;10.30;99.90;;;;;;5073286;28;20224;-72
2023/04/22 05:26:00;;;;;;;10.10;7.60;;;10.50;99.90;;;;;;5074077;28;20201;-73
2023/04/22 05:28:27;;;;;;;8.27;7.33;;;10.70;99.90;;;;;;5073410;28;20219;-73
2023/04/22 05:30:54;;;;;;;12.00;7.70;;;10.90;99.90;;;;;;5073966;28;20232;-74
2023/04/22 05:33:20;;;;;;;8.13;6.93;;;11.00;99.90;;;;;;5073526;28;20664;-73
2023/04/22 05:35:47;;;;;;;9.07;7.40;;;11.20;99.90;;;;;;5073141;28;20256;-74
2023/04/22 05:38:13;;;;;;;8.53;7.10;;;11.30;99.90;;;;;;5073179;28;20594;-74
2023/04/22 05:40:41;;;;;;;8.93;6.23;;;11.40;99.90;;;;;;5073286;28;20303;-73
2023/04/22 05:43:08;;;;;;;7.47;6.63;;;11.60;99.90;;;;;;5073092;28;20263;-74
2023/04/22 05:45:35;;;;;;;7.03;6.00;;;11.70;99.90;;;;;;5072971;28;20236;-73
2023/04/22 05:48:02;;;;;;;8.27;6.40;;;11.90;99.90;;;;;;5073300;28;20233;-74
2023/04/22 05:50:28;;;;;;;8.63;5.97;;;12.00;99.90;;;;;;5073577;28;20250;-74
2023/04/22 05:52:55;;;;;;;8.00;6.50;;;12.10;99.90;;;;;;5073796;28;20237;-75
2023/04/22 05:55:22;;;;;;;7.77;6.33;;;12.20;99.90;;;;;;5073191;28;20200;-76
2023/04/22 05:57:50;;;;;;;7.13;6.17;;;12.40;99.90;;;;;;5074068;28;20662;-74
2023/04/22 06:00:17;;;;;;;9.07;6.90;;;12.50;99.90;;;;;;5073050;28;20197;-74
2023/04/22 06:02:44;;;;;;;10.57;7.33;;;12.60;99.90;;;;;;5073397;28;20232;-73
2023/04/22 06:05:11;;;;;;;8.03;6.77;;;12.80;99.90;;;;;;5073199;28;20648;-74
2023/04/22 06:07:37;;;;;;;7.67;6.17;;;13.00;99.90;;;;;;5073061;28;20661;-74
2023/04/22 06:10:04;;;;;;;7.23;6.37;;;13.10;99.90;;;;;;5072693;28;20246;-75
2023/04/22 06:12:31;;;;;;;8.03;6.03;;;13.30;99.90;;;;;;5073122;28;20201;-73
2023/04/22 06:14:59;;;;;;;7.57;6.17;;;13.40;99.90;;;;;;5073080;28;20274;-73
2023/04/22 06:17:26;;;;;;;6.83;5.40;;;13.60;99.90;;;;;;5072863;28;20634;-72
2023/04/22 06:19:52;;;;;;;10.93;6.00;;;13.70;99.90;;;;;;5072747;28;20228;-74
2023/04/22 06:22:19;;;;;;;8.63;5.87;;;13.80;99.90;;;;;;5073008;28;20233;-72
2023/04/22 06:24:46;;;;;;;7.63;6.20;;;13.90;99.90;;;;;;5071991;28;20207;-73
2023/04/22 06:27:12;;;;;;;10.10;6.30;;;14.00;99.90;;;;;;5072896;28;20197;-76
2023/04/22 06:29:39;;;;;;;7.53;5.83;;;14.00;99.90;;;;;;5073190;28;20322;-74
2023/04/22 06:32:07;;;;;;;7.63;6.03;;;14.10;99.90;;;;;;5072773;28;20256;-77
2023/04/22 06:34:34;;;;;;;9.18;6.22;;;14.20;99.90;;;;;;5072532;28;20261;-73
2023/04/22 06:37:00;;;;;;;10.67;6.57;;;14.20;99.90;;;;;;5072466;28;20229;-74
2023/04/22 06:39:27;;;;;;;9.02;6.10;;;14.20;99.90;;;;;;5072816;28;20232;-79
2023/04/22 06:41:54;;;;;;;7.25;5.72;;;14.40;99.90;;;;;;5072786;28;20251;-74
2023/04/22 06:44:20;;;;;;;9.57;6.28;;;14.40;99.90;;;;;;5072783;28;20225;-73
2023/04/22 06:46:47;;;;;;;6.85;6.00;;;14.60;99.90;;;;;;5072578;28;20231;-73
2023/04/22 06:49:15;;;;;;;8.30;6.18;;;14.60;99.90;;;;;;5072465;28;20228;-73
2023/04/22 06:51:41;;;;;;;9.43;6.57;;;14.90;99.90;;;;;;5072341;28;20201;-73
2023/04/22 06:54:08;;;;;;;8.48;5.35;;;15.00;99.90;;;;;;5072702;28;20197;-73
2023/04/22 06:56:35;;;;;;;7.78;6.18;;;15.20;99.90;;;;;;5072555;28;20217;-72
2023/04/22 06:59:01;;;;;;;7.10;6.28;;;15.30;99.90;;;;;;5072510;28;20246;-73
2023/04/22 07:01:28;;;;;;;7.03;5.45;;;15.40;99.90;;;;;;5072716;28;20337;-75
2023/04/22 07:03:54;;;;;;;9.02;6.15;;;15.60;99.90;;;;;;5072360;28;20237;-73
2023/04/22 07:06:22;;;;;;;6.57;5.95;;;15.70;99.90;;;;;;5072284;28;20231;-74
2023/04/22 07:08:49;;;;;;;8.50;6.07;;;15.80;99.90;;;;;;5072834;28;20246;-73
2023/04/22 07:11:15;;;;;;;7.50;5.65;;;16.00;99.90;;;;;;5072528;28;20204;-74
2023/04/22 07:13:42;;;;;;;6.90;5.97;;;16.20;99.90;;;;;;5072580;28;20617;-76
2023/04/22 07:16:09;;;;;;;7.88;6.40;;;16.30;99.90;;;;;;5072331;28;20192;-73
2023/04/22 07:18:35;;;;;;;9.50;6.30;;;16.40;99.90;;;;;;5072301;28;20229;-73
2023/04/22 07:21:02;;;;;;;7.30;5.70;;;16.50;99.90;;;;;;5072221;28;20221;-72
2023/04/22 07:23:30;;;;;;;7.90;5.50;;;16.80;99.90;;;;;;5072301;28;20240;-73
2023/04/22 07:25:57;;;;;;;6.93;5.63;;;17.00;99.90;;;;;;5072471;28;20225;-73
2023/04/22 07:28:23;;;;;;;14.65;6.18;;;17.20;99.90;;;;;;5074325;28;20197;-73
2023/04/22 07:30:50;;;;;;;6.53;5.43;;;17.40;99.90;;;;;;5075869;28;20228;-72
2023/04/22 07:33:17;;;;;;;6.22;5.38;;;17.60;99.90;;;;;;5075687;28;20650;-74
2023/04/22 07:35:43;;;;;;;10.88;6.45;;;17.70;99.90;;;;;;5075657;28;20275;-74
2023/04/22 07:38:10;;;;;;;9.50;6.30;;;17.80;99.90;;;;;;5075674;28;20258;-73
2023/04/22 07:40:38;;;;;;;7.18;5.78;;;18.00;99.90;;;;;;5075825;28;20236;-74
2023/04/22 07:43:05;;;;;;;5.88;5.28;;;18.10;99.90;;;;;;5075630;28;20229;-73
2023/04/22 07:45:32;;;;;;;7.78;5.30;;;18.20;99.90;;;;;;5075328;28;20209;-73
2023/04/22 07:47:58;;;;;;;7.00;5.03;;;18.20;99.90;;;;;;5075268;28;20235;-74
2023/04/22 07:50:25;;;;;;;7.13;5.22;;;18.40;99.90;;;;;;5075557;28;20730;-74
2023/04/22 07:52:51;;;;;;;11.23;5.80;;;18.60;99.90;;;;;;5075275;28;20699;-73
2023/04/22 07:55:18;;;;;;;7.70;5.93;;;18.80;99.90;;;;;;5075506;28;20231;-73
2023/04/22 07:57:46;;;;;;;10.50;5.82;;;18.90;99.90;;;;;;5075118;28;20263;-74
2023/04/22 08:00:14;;;;;;;7.43;6.05;;;19.10;99.90;;;;;;5075301;28;20224;-74
2023/04/22 08:02:42;;;;;;;9.48;5.93;;;19.20;99.90;;;;;;5075066;28;20204;-73
2023/04/22 08:05:09;;;;;;;6.85;5.40;;;19.10;99.90;;;;;;5075311;28;20565;-73
2023/04/22 08:07:36;;;;;;;6.55;5.88;;;19.20;99.90;;;;;;5075193;28;20244;-74
2023/04/22 08:10:03;;;;;;;6.38;5.50;;;19.00;99.90;;;;;;5075060;28;20236;-74
2023/04/22 08:12:29;;;;;;;7.00;5.90;;;19.20;99.90;;;;;;5075142;28;20197;-74
2023/04/22 08:14:57;;;;;;;7.80;5.63;;;19.50;99.90;;;;;;5074831;28;20628;-74
2023/04/22 08:17:24;;;;;;;7.40;5.68;;;19.70;99.90;;;;;;5074818;28;20715;-74
2023/04/22 08:19:51;;;;;;;6.50;5.82;;;19.70;99.90;;;;;;5074994;28;20259;-74
2023/04/22 08:22:17;;;;;;;7.03;5.63;;;19.70;99.90;;;;;;5074815;28;20228;-74
2023/04/22 08:24:44;;;;;;;8.55;5.95;;;19.90;99.90;;;;;;5074885;28;20221;-74
2023/04/22 08:27:11;;;;;;;8.75;6.13;;;20.00;99.90;;;;;;5074636;28;20254;-74
2023/04/22 08:29:37;;;;;;;6.90;6.20;;;20.00;99.90;;;;;;5074605;28;20251;-74
2023/04/22 08:32:06;;;;;;;12.18;6.70;;;20.00;99.90;;;;;;5074690;28;20624;-74
2023/04/22 08:34:33;;;;;;;9.27;5.85;;;20.00;99.90;;;;;;5074720;28;20323;-74
2023/04/22 08:36:59;;;;;;;8.43;5.82;;;20.00;99.90;;;;;;5074630;28;20580;-74
2023/04/22 08:39:26;;;;;;;7.70;5.75;;;20.20;99.90;;;;;;5073538;28;20197;-74
2023/04/22 08:41:53;;;;;;;6.95;6.00;;;20.40;99.90;;;;;;5074531;28;20233;-74
2023/04/22 08:44:21;;;;;;;6.72;5.70;;;20.60;99.90;;;;;;5074212;28;20239;-74
2023/04/22 08:46:49;;;;;;;7.50;5.80;;;20.70;99.90;;;;;;5074442;28;20656;-74
2023/04/22 08:49:17;;;;;;;6.78;5.30;;;20.70;99.90;;;;;;5074521;28;20235;-74
2023/04/22 08:51:45;;;;;;;6.05;5.45;;;20.90;99.90;;;;;;5074439;28;20228;-74
2023/04/22 08:54:12;;;;;;;8.00;5.60;;;21.00;99.90;;;;;;5074138;28;20201;-74
2023/04/22 08:56:40;;;;;;;7.97;5.32;;;20.70;99.90;;;;;;5074122;28;20224;-74
2023/04/22 08:59:09;;;;;;;6.50;5.25;;;21.10;99.90;;;;;;5074232;28;20282;-74
2023/04/22 09:01:36;;;;;;;8.18;5.55;;;21.40;99.90;;;;;;5074176;28;20228;-73
2023/04/22 09:04:03;;;;;;;6.90;4.70;;;21.70;99.90;;;;;;5074140;28;20224;-74
2023/04/22 09:06:32;;;;;;;10.05;5.20;;;21.90;99.40;;;;;;5074012;28;20240;-74
2023/04/22 09:09:00;;;;;;;5.68;5.18;;;22.20;98.50;;;;;;5073863;28;20311;-77
2023/04/22 09:11:27;;;;;;;7.63;5.35;;;21.70;97.10;;;;;;5073887;28;20710;-74
2023/04/22 09:13:54;;;;;;;10.35;5.15;;;22.20;97.60;;;;;;5074024;28;20275;-75
2023/04/22 09:16:21;;;;;;;6.28;4.80;;;22.60;96.30;;;;;;5073711;28;20599;-73
2023/04/22 09:18:47;;;;;;;8.07;5.03;;;22.80;94.90;;;;;;5073589;28;20268;-73
2023/04/22 09:21:14;;;;;;;6.30;4.80;;;22.90;94.20;;;;;;5073864;28;20220;-73
2023/04/22 09:23:48;;;;;;;6.35;4.30;;;23.00;94.30;;;;;;5073546;28;20243;-73
2023/04/22 09:26:17;;;;;;;4.93;4.47;;;22.60;91.20;;;;;;5073751;28;20539;-73
2023/04/22 09:28:49;;;;;;;5.65;4.50;;;22.40;90.60;;;;;;5073342;28;20657;-73
2023/04/22 09:31:16;;;;;;;7.95;4.72;;;21.60;91.10;;;;;;5073537;28;20196;-73
2023/04/22 09:33:47;;;;;;;6.97;4.70;;;21.50;92.70;;;;;;5073510;28;20196;-73
2023/04/22 09:36:14;;;;;;;6.90;4.57;;;21.40;91.70;;;;;;5073295;28;20239;-72
2023/04/22 09:38:40;;;;;;;6.25;4.65;;;21.90;91.00;;;;;;5073456;28;20217;-74
2023/04/22 09:41:11;;;;;;;5.57;5.07;;;22.30;90.80;;;;;;5073430;28;20244;-74
2023/04/22 09:43:38;;;;;;;4.30;3.83;;;22.30;90.70;;;;;;5073364;28;20246;-74
2023/04/22 09:46:05;;;;;;;5.25;4.43;;;22.80;90.40;;;;;;5073394;28;20560;-74
2023/04/22 09:48:31;;;;;;;6.32;5.10;;;23.10;90.40;;;;;;5073106;28;20689;-74
2023/04/22 09:50:58;;;;;;;5.68;5.18;;;22.60;90.60;;;;;;5072694;28;20598;-74
2023/04/22 09:53:25;;;;;;;6.75;5.30;;;22.30;90.20;;;;;;5073234;28;20224;-74
2023/04/22 09:55:54;;;;;;;5.57;4.78;;;21.70;91.20;;;;;;5072995;28;20699;-74
2023/04/22 09:58:24;;;;;;;6.13;5.28;;;22.20;90.30;;;;;;5073077;28;20256;-73
2023/04/22 10:00:53;;;;;;;5.13;4.63;;;22.60;88.90;;;;;;5073124;28;20216;-74
2023/04/22 10:03:20;;;;;;;5.05;4.47;;;23.10;87.50;;;;;;5072938;28;20645;-73
2023/04/22 10:05:47;;;;;;;5.65;4.50;;;22.60;88.40;;;;;;5073222;28;20197;-74
2023/04/22 10:08:15;;;;;;;5.88;4.30;;;23.40;86.00;;;;;;5073097;28;20208;-73
2023/04/22 10:10:42;;;;;;;4.25;3.85;;;23.50;81.20;;;;;;5073051;28;20228;-73
2023/04/22 10:13:09;;;;;;;5.00;4.50;;;22.80;80.40;;;;;;5072982;28;20237;-74
2023/04/22 10:15:40;;;;;;;6.63;4.35;;;23.00;80.40;;;;;;5072886;28;20197;-74
2023/04/22 10:18:10;;;;;;;4.95;3.63;;;22.90;80.00;;;;;;5072567;28;20708;-74
2023/04/22 10:20:39;;;;;;;3.88;3.47;;;22.50;76.40;;;;;;5073220;28;20223;-74
2023/04/22 10:23:13;;;;;;;3.92;3.63;;;23.20;76.50;;;;;;5072829;28;20232;-73
2023/04/22 10:25:40;;;;;;;4.75;3.55;;;23.60;73.20;;;;;;5072841;28;20228;-74
2023/04/22 10:28:09;;;;;;;4.82;3.58;;;23.80;74.20;;;;;;5072652;28;20220;-74
2023/04/22 10:30:38;;;;;;;6.72;3.90;;;24.30;71.90;;;;;;5072842;28;20289;-74
2023/04/22 10:33:44;;;;;;;4.93;3.92;;;24.00;70.40;;;;;;5072796;28;20287;-74
2023/04/22 10:36:16;;;;;;;5.25;4.30;;;23.50;70.80;;;;;;5057197;28;20254;-74
2023/04/22 10:39:17;;;;;;;6.65;4.07;;;23.40;72.10;;;;;;5072389;28;20311;-74
2023/04/22 10:41:55;;;;;;;5.70;3.97;;;23.20;71.60;;;;;;5072760;28;20201;-74
2023/04/22 10:44:22;;;;;;;7.85;4.90;;;23.90;72.40;;;;;;5072661;28;20232;-74
2023/04/22 10:47:00;;;;;;;8.10;4.82;;;24.80;72.30;;;;;;5072654;28;20193;-74
2023/04/22 10:49:30;;;;;;;4.90;4.40;;;25.70;68.00;;;;;;5072717;28;20200;-74
2023/04/22 10:51:58;;;;;;;7.43;4.30;;;26.00;66.10;;;;;;5072624;28;20197;-74
2023/04/22 10:54:57;;;;;;;8.05;4.00;;;26.40;66.00;;;;;;5072524;28;20193;-74
2023/04/22 10:57:38;;;;;;;4.88;4.40;;;28.10;61.70;;;;;;5072333;28;20197;-74
2023/04/22 11:00:27;;;;;;;4.88;4.25;;;27.60;55.90;;;;;;5072574;28;20197;-74
2023/04/22 11:03:11;;;;;;;5.32;4.00;;;25.90;57.30;;;;;;5073731;28;20197;-74
2023/04/22 11:05:39;;;;;;;5.88;4.85;;;26.30;57.30;;;;;;5076233;28;20197;-74
2023/04/22 11:08:08;;;;;;;5.53;4.43;;;27.20;56.60;;;;;;5076110;28;20258;-74
2023/04/22 11:10:39;;;;;;;5.30;4.43;;;28.00;56.00;;;;;;5076390;28;20201;-75
2023/04/22 11:13:08;;;;;;;6.22;4.75;;;28.00;54.30;;;;;;5076325;28;20197;-74
2023/04/22 11:15:37;;;;;;;6.88;4.63;;;27.70;55.50;;;;;;5076281;28;20197;-76
2023/04/22 11:18:10;;;;;;;5.65;4.15;;;27.30;53.90;;;;;;5076069;28;20220;-74
2023/04/22 11:20:36;;;;;;;7.05;4.45;;;27.20;54.40;;;;;;5075932;28;20648;-74
2023/04/22 11:23:04;;;;;;;7.63;4.75;;;27.50;53.90;;;;;;5076065;28;20197;-73
2023/04/22 11:25:30;;;;;;;6.30;4.70;;;26.60;54.10;;;;;;5075870;28;20679;-74
2023/04/22 11:27:57;;;;;;;6.85;4.47;;;26.90;53.60;;;;;;5075951;28;20247;-73
2023/04/22 11:30:25;;;;;;;6.35;4.57;;;26.90;53.60;;;;;;5075843;28;20201;-73
2023/04/22 11:32:53;;;;;;;6.55;5.07;;;26.60;54.40;;;;;;5075644;28;20228;-73
2023/04/22 11:35:23;;;;;;;6.50;4.72;;;25.10;56.30;;;;;;5075696;28;20260;-73
2023/04/22 11:37:54;;;;;;;9.13;5.03;;;25.10;55.40;;;;;;5075717;28;20229;-73
2023/04/22 11:40:25;;;;;;;5.20;4.13;;;25.60;55.60;;;;;;5075818;28;20201;-74
2023/04/22 11:42:52;;;;;;;4.65;4.25;;;26.40;54.40;;;;;;5075683;28;20684;-74
2023/04/22 11:45:19;;;;;;;5.15;4.63;;;25.10;53.40;;;;;;5075502;28;20272;-74
2023/04/22 11:47:49;;;;;;;5.63;4.80;;;25.20;53.80;;;;;;5075498;28;20652;-74
2023/04/22 11:50:17;;;;;;;6.15;4.15;;;25.30;54.70;;;;;;5075571;28;20200;-74
2023/04/22 11:52:47;;;;;;;5.63;3.85;;;24.80;55.20;;;;;;5075529;28;20228;-74
2023/04/22 11:55:15;;;;;;;3.10;2.80;;;25.20;52.20;;;;;;5075894;28;20200;-74
2023/04/22 11:57:43;;;;;;;3.67;2.28;;;25.10;48.80;;;;;;5075444;28;20197;-75
2023/04/22 12:00:13;;;;;;;2.22;2.00;;;25.90;46.30;;;;;;5075260;28;20229;-74
2023/04/22 12:02:40;;;;;;;2.30;2.10;;;25.60;42.70;;;;;;5075295;28;20648;-75
2023/04/22 12:05:11;;;;;;;2.80;2.30;;;25.80;42.30;;;;;;5075461;28;20239;-74
2023/04/22 12:07:38;;;;;;;2.70;2.50;;;24.90;44.00;;;;;;5075496;28;20197;-75
2023/04/22 12:10:07;;;;;;;3.20;2.10;;;25.20;44.50;;;;;;5075307;28;20211;-74
2023/04/22 12:12:36;;;;;;;2.53;2.30;;;26.80;40.50;;;;;;5075228;28;20587;-74
2023/04/22 12:15:09;;;;;;;2.45;1.73;;;25.90;41.60;;;;;;5075166;28;20251;-74
2023/04/22 12:17:36;;;;;;;3.65;2.20;;;26.50;41.10;;;;;;5075294;28;20193;-75
2023/04/22 12:20:04;;;;;;;2.22;1.80;;;27.50;40.40;;;;;;5075085;28;20264;-77
2023/04/22 12:22:32;;;;;;;2.58;2.28;;;28.30;38.70;;;;;;5075022;28;20652;-74
2023/04/22 12:24:59;;;;;;;2.28;2.00;;;27.90;39.40;;;;;;5075038;28;20197;-75
2023/04/22 12:27:27;;;;;;;2.60;2.28;;;28.90;38.10;;;;;;5074850;28;20197;-75
2023/04/22 12:29:55;;;;;;;2.20;2.00;;;28.80;36.80;;;;;;5074964;28;20196;-75
2023/04/22 12:32:23;;;;;;;2.20;2.00;;;29.70;33.40;;;;;;5075061;28;20204;-75
2023/04/22 12:34:50;;;;;;;2.63;1.90;;;30.20;32.10;;;;;;5074739;28;20332;-74
2023/04/22 12:37:18;;;;;;;3.33;1.80;;;29.70;30.90;;;;;;5074692;28;20564;-75
2023/04/22 12:39:45;;;;;;;3.83;2.10;;;29.90;30.50;;;;;;5074493;28;20252;-75
2023/04/22 12:42:12;;;;;;;2.60;2.40;;;29.10;31.30;;;;;;5074796;28;20201;-75
2023/04/22 12:44:40;;;;;;;2.85;2.33;;;28.80;32.50;;;;;;5074748;28;20197;-75
2023/04/22 12:47:08;;;;;;;3.55;2.30;;;29.20;32.60;;;;;;5074749;28;20254;-74
2023/04/22 12:49:36;;;;;;;2.42;2.22;;;30.30;31.60;;;;;;5074620;28;20201;-75